PWSweather.com
Personal Weather Stations
Station Observations
SHAHALMS1
Eftra, Falkenberg, HA

EftraFalkenberg, HA

Lat: 56.85, Lon: 12.65

Elevation: 140

Station Type:

http://hem.passagen.se/risarp101

High Low Average
Temperature 59.4°F15.2°C 52.7°F11.5°C 55.4°F13.0°C
Dew Point 46.5°F8.1°C 39.5°F4.2°C 42.8°F6.0°C
Winds 32.6 mph 52.5 kmh 3.8 mph 6.1 kmh 13.0 mph SW20.9 kmh SW
Wind Gusts 40.1 mph64.5 kmh 4.7 mph7.6 kmh 17.0 mph27.4 kmh
Humidity 79% 54% 63%
Pressure 29.89 in1012.2 mb 29.77 in1008.1 mb -
Precipitation 0.00 in0.0 mm - -
Hour Temp Dew Point Humidity Winds Wind Gusts Pressure Precip Precip Rate Daily Precip Total
12:00 AM 55.4°F13.0°C 44.2°F6.8°C 66% 10.2 mph W16.4 kmh W 12.5 mph20.1 kmh 29.80 in1009.1 mb 0.00 in0.0 mm 0.00 in0.0 mm 0.00 in0.0 mm
12:10 AM 55.2°F12.9°C 44.1°F6.7°C 66% 10.2 mph W16.4 kmh W 12.5 mph20.1 kmh 29.80 in1009.1 mb 0.00 in0.0 mm 0.00 in0.0 mm 0.00 in0.0 mm
12:20 AM 55.0°F12.8°C 43.9°F6.6°C 66% 16.0 mph NW25.7 kmh NW 19.7 mph31.7 kmh 29.80 in1009.1 mb 0.00 in0.0 mm 0.00 in0.0 mm 0.00 in0.0 mm
12:30 AM 54.9°F12.7°C 44.1°F6.7°C 67% 16.0 mph NW25.7 kmh NW 19.7 mph31.7 kmh 29.80 in1009.1 mb 0.00 in0.0 mm 0.00 in0.0 mm 0.00 in0.0 mm
12:40 AM 54.9°F12.7°C 44.1°F6.7°C 67% 16.0 mph NW25.7 kmh NW 19.7 mph31.7 kmh 29.77 in1008.1 mb 0.00 in0.0 mm 0.00 in0.0 mm 0.00 in0.0 mm
12:50 AM 54.5°F12.5°C 43.8°F6.6°C 67% 16.0 mph NW25.7 kmh NW 19.7 mph31.7 kmh 29.77 in1008.1 mb 0.00 in0.0 mm 0.00 in0.0 mm 0.00 in0.0 mm
01:00 AM 54.5°F12.5°C 43.8°F6.6°C 67% 16.0 mph NW25.7 kmh NW 19.7 mph31.7 kmh 29.80 in1009.1 mb 0.00 in0.0 mm 0.00 in0.0 mm 0.00 in0.0 mm
01:10 AM 54.5°F12.5°C 43.8°F6.6°C 67% 16.0 mph NW25.7 kmh NW 19.7 mph31.7 kmh 29.80 in1009.1 mb 0.00 in0.0 mm 0.00 in0.0 mm 0.00 in0.0 mm
01:20 AM 54.5°F12.5°C 43.8°F6.6°C 67% 16.0 mph NW25.7 kmh NW 19.7 mph31.7 kmh 29.80 in1009.1 mb 0.00 in0.0 mm 0.00 in0.0 mm 0.00 in0.0 mm
01:30 AM 54.5°F12.5°C 43.8°F6.6°C 67% 16.0 mph NW25.7 kmh NW 19.7 mph31.7 kmh 29.77 in1008.1 mb 0.00 in0.0 mm 0.00 in0.0 mm 0.00 in0.0 mm
01:40 AM 54.5°F12.5°C 43.4°F6.3°C 66% 16.0 mph NW25.7 kmh NW 19.7 mph31.7 kmh 29.80 in1009.1 mb 0.00 in0.0 mm 0.00 in0.0 mm 0.00 in0.0 mm
01:50 AM 54.5°F12.5°C 43.4°F6.3°C 66% 16.0 mph NW25.7 kmh NW 19.7 mph31.7 kmh 29.80 in1009.1 mb 0.00 in0.0 mm 0.00 in0.0 mm 0.00 in0.0 mm
02:00 AM 54.5°F12.5°C 43.4°F6.3°C 66% 16.0 mph NW25.7 kmh NW 19.7 mph31.7 kmh 29.80 in1009.1 mb 0.00 in0.0 mm 0.00 in0.0 mm 0.00 in0.0 mm
02:10 AM 54.3°F12.4°C 43.2°F6.2°C 66% 16.0 mph NW25.7 kmh NW 19.7 mph31.7 kmh 29.80 in1009.1 mb 0.00 in0.0 mm 0.00 in0.0 mm 0.00 in0.0 mm
02:20 AM 54.3°F12.4°C 43.6°F6.4°C 67% 32.6 mph NW52.5 kmh NW 40.1 mph64.5 kmh 29.80 in1009.1 mb 0.00 in0.0 mm 0.00 in0.0 mm 0.00 in0.0 mm
02:30 AM 54.3°F12.4°C 43.2°F6.2°C 66% 32.6 mph NW52.5 kmh NW 40.1 mph64.5 kmh 29.80 in1009.1 mb 0.00 in0.0 mm 0.00 in0.0 mm 0.00 in0.0 mm
02:40 AM 54.3°F12.4°C 43.2°F6.2°C 66% 32.6 mph NW52.5 kmh NW 40.1 mph64.5 kmh 29.80 in1009.1 mb 0.00 in0.0 mm 0.00 in0.0 mm 0.00 in0.0 mm
02:50 AM 54.5°F12.5°C 43.0°F6.1°C 65% 32.0 mph W51.5 kmh W 40.1 mph64.5 kmh 29.80 in1009.1 mb 0.00 in0.0 mm 0.00 in0.0 mm 0.00 in0.0 mm
03:00 AM 54.3°F12.4°C 43.2°F6.2°C 66% 21.6 mph SW34.8 kmh SW 39.0 mph62.8 kmh 29.83 in1010.2 mb 0.00 in0.0 mm 0.00 in0.0 mm 0.00 in0.0 mm
03:10 AM 54.3°F12.4°C 43.2°F6.2°C 66% 17.2 mph S27.7 kmh S 21.1 mph34.0 kmh 29.83 in1010.2 mb 0.00 in0.0 mm 0.00 in0.0 mm 0.00 in0.0 mm
03:20 AM 54.3°F12.4°C 43.2°F6.2°C 66% 17.2 mph S27.7 kmh S 21.1 mph34.0 kmh 29.83 in1010.2 mb 0.00 in0.0 mm 0.00 in0.0 mm 0.00 in0.0 mm
03:30 AM 54.3°F12.4°C 43.2°F6.2°C 66% 23.0 mph W37.0 kmh W 28.3 mph45.5 kmh 29.83 in1010.2 mb 0.00 in0.0 mm 0.00 in0.0 mm 0.00 in0.0 mm
03:40 AM 54.3°F12.4°C 43.2°F6.2°C 66% 23.0 mph W37.0 kmh W 28.3 mph45.5 kmh 29.83 in1010.2 mb 0.00 in0.0 mm 0.00 in0.0 mm 0.00 in0.0 mm
03:50 AM 54.3°F12.4°C 42.8°F6.0°C 65% 23.0 mph W37.0 kmh W 28.3 mph45.5 kmh 29.83 in1010.2 mb 0.00 in0.0 mm 0.00 in0.0 mm 0.00 in0.0 mm
04:00 AM 54.3°F12.4°C 42.8°F6.0°C 65% 23.0 mph W37.0 kmh W 28.3 mph45.5 kmh 29.83 in1010.2 mb 0.00 in0.0 mm 0.00 in0.0 mm 0.00 in0.0 mm
04:10 AM 54.3°F12.4°C 42.8°F6.0°C 65% 23.0 mph W37.0 kmh W 28.3 mph45.5 kmh 29.83 in1010.2 mb 0.00 in0.0 mm 0.00 in0.0 mm 0.00 in0.0 mm
04:20 AM 54.3°F12.4°C 43.2°F6.2°C 66% 23.0 mph W37.0 kmh W 28.3 mph45.5 kmh 29.83 in1010.2 mb 0.00 in0.0 mm 0.00 in0.0 mm 0.00 in0.0 mm
04:30 AM 54.3°F12.4°C 43.2°F6.2°C 66% 23.0 mph W37.0 kmh W 28.3 mph45.5 kmh 29.83 in1010.2 mb 0.00 in0.0 mm 0.00 in0.0 mm 0.00 in0.0 mm
04:40 AM 54.1°F12.3°C 43.0°F6.1°C 66% 23.0 mph W37.0 kmh W 28.3 mph45.5 kmh 29.80 in1009.1 mb 0.00 in0.0 mm 0.00 in0.0 mm 0.00 in0.0 mm
04:50 AM 54.0°F12.2°C 42.9°F6.1°C 66% 23.0 mph W37.0 kmh W 28.3 mph45.5 kmh 29.80 in1009.1 mb 0.00 in0.0 mm 0.00 in0.0 mm 0.00 in0.0 mm
05:00 AM 53.8°F12.1°C 42.3°F5.7°C 65% 15.4 mph W24.8 kmh W 19.0 mph30.6 kmh 29.80 in1009.1 mb 0.00 in0.0 mm 0.00 in0.0 mm 0.00 in0.0 mm
05:10 AM 53.6°F12.0°C 42.1°F5.6°C 65% 15.4 mph W24.8 kmh W 19.0 mph30.6 kmh 29.80 in1009.1 mb 0.00 in0.0 mm 0.00 in0.0 mm 0.00 in0.0 mm
05:20 AM 53.6°F12.0°C 42.5°F5.8°C 66% 15.4 mph W24.8 kmh W 19.0 mph30.6 kmh 29.80 in1009.1 mb 0.00 in0.0 mm 0.00 in0.0 mm 0.00 in0.0 mm
05:30 AM 53.6°F12.0°C 42.1°F5.6°C 65% 15.4 mph W24.8 kmh W 19.0 mph30.6 kmh 29.83 in1010.2 mb 0.00 in0.0 mm 0.00 in0.0 mm 0.00 in0.0 mm
05:40 AM 53.6°F12.0°C 42.1°F5.6°C 65% 15.4 mph W24.8 kmh W 19.0 mph30.6 kmh 29.80 in1009.1 mb 0.00 in0.0 mm 0.00 in0.0 mm 0.00 in0.0 mm
05:50 AM 53.4°F11.9°C 42.3°F5.7°C 66% 22.1 mph W35.6 kmh W 27.2 mph43.8 kmh 29.80 in1009.1 mb 0.00 in0.0 mm 0.00 in0.0 mm 0.00 in0.0 mm
06:00 AM 53.4°F11.9°C 41.9°F5.5°C 65% 22.1 mph W35.6 kmh W 27.2 mph43.8 kmh 29.83 in1010.2 mb 0.00 in0.0 mm 0.00 in0.0 mm 0.00 in0.0 mm
06:10 AM 53.4°F11.9°C 41.9°F5.5°C 65% 22.1 mph W35.6 kmh W 27.2 mph43.8 kmh 29.80 in1009.1 mb 0.00 in0.0 mm 0.00 in0.0 mm 0.00 in0.0 mm
06:20 AM 53.6°F12.0°C 42.1°F5.6°C 65% 22.1 mph W35.6 kmh W 27.2 mph43.8 kmh 29.80 in1009.1 mb 0.00 in0.0 mm 0.00 in0.0 mm 0.00 in0.0 mm
06:30 AM 53.6°F12.0°C 42.1°F5.6°C 65% 22.1 mph W35.6 kmh W 27.2 mph43.8 kmh 29.80 in1009.1 mb 0.00 in0.0 mm 0.00 in0.0 mm 0.00 in0.0 mm
06:40 AM 53.6°F12.0°C 42.1°F5.6°C 65% 22.1 mph W35.6 kmh W 27.2 mph43.8 kmh 29.83 in1010.2 mb 0.00 in0.0 mm 0.00 in0.0 mm 0.00 in0.0 mm
06:50 AM 53.6°F12.0°C 42.1°F5.6°C 65% 22.1 mph W35.6 kmh W 27.2 mph43.8 kmh 29.83 in1010.2 mb 0.00 in0.0 mm 0.00 in0.0 mm 0.00 in0.0 mm
07:00 AM 54.0°F12.2°C 42.5°F5.8°C 65% 22.1 mph W35.6 kmh W 27.2 mph43.8 kmh 29.83 in1010.2 mb 0.00 in0.0 mm 0.00 in0.0 mm 0.00 in0.0 mm
07:10 AM 54.1°F12.3°C 42.6°F5.9°C 65% 22.1 mph W35.6 kmh W 27.2 mph43.8 kmh 29.83 in1010.2 mb 0.00 in0.0 mm 0.00 in0.0 mm 0.00 in0.0 mm
07:20 AM 54.1°F12.3°C 42.2°F5.7°C 64% 22.1 mph W35.6 kmh W 27.2 mph43.8 kmh 29.83 in1010.2 mb 0.00 in0.0 mm 0.00 in0.0 mm 0.00 in0.0 mm
07:30 AM 54.1°F12.3°C 42.2°F5.7°C 64% 22.1 mph W35.6 kmh W 27.2 mph43.8 kmh 29.83 in1010.2 mb 0.00 in0.0 mm 0.00 in0.0 mm 0.00 in0.0 mm
07:40 AM 54.5°F12.5°C 42.6°F5.9°C 64% 22.1 mph W35.6 kmh W 27.2 mph43.8 kmh 29.83 in1010.2 mb 0.00 in0.0 mm 0.00 in0.0 mm 0.00 in0.0 mm
07:50 AM 54.9°F12.7°C 42.9°F6.1°C 64% 22.1 mph W35.6 kmh W 27.2 mph43.8 kmh 29.83 in1010.2 mb 0.00 in0.0 mm 0.00 in0.0 mm 0.00 in0.0 mm
08:00 AM 54.9°F12.7°C 42.9°F6.1°C 64% 8.1 mph ENE13.0 kmh ENE 10.0 mph16.1 kmh 29.83 in1010.2 mb 0.00 in0.0 mm 0.00 in0.0 mm 0.00 in0.0 mm
08:10 AM 55.0°F12.8°C 42.7°F5.9°C 63% 8.1 mph ENE13.0 kmh ENE 10.0 mph16.1 kmh 29.83 in1010.2 mb 0.00 in0.0 mm 0.00 in0.0 mm 0.00 in0.0 mm
08:20 AM 55.2°F12.9°C 42.8°F6.0°C 63% 8.1 mph ENE13.0 kmh ENE 10.0 mph16.1 kmh 29.83 in1010.2 mb 0.00 in0.0 mm 0.00 in0.0 mm 0.00 in0.0 mm
08:30 AM 55.4°F13.0°C 42.6°F5.9°C 62% 8.1 mph ENE13.0 kmh ENE 10.0 mph16.1 kmh 29.83 in1010.2 mb 0.00 in0.0 mm 0.00 in0.0 mm 0.00 in0.0 mm
08:40 AM 55.4°F13.0°C 43.0°F6.1°C 63% 8.1 mph ENE13.0 kmh ENE 10.0 mph16.1 kmh 29.86 in1011.2 mb 0.00 in0.0 mm 0.00 in0.0 mm 0.00 in0.0 mm
08:50 AM 55.4°F13.0°C 43.0°F6.1°C 63% 8.1 mph ENE13.0 kmh ENE 10.0 mph16.1 kmh 29.86 in1011.2 mb 0.00 in0.0 mm 0.00 in0.0 mm 0.00 in0.0 mm
09:00 AM 55.8°F13.2°C 42.9°F6.1°C 62% 8.1 mph ENE13.0 kmh ENE 10.0 mph16.1 kmh 29.83 in1010.2 mb 0.00 in0.0 mm 0.00 in0.0 mm 0.00 in0.0 mm
09:10 AM 56.1°F13.4°C 43.3°F6.3°C 62% 8.1 mph ENE13.0 kmh ENE 10.0 mph16.1 kmh 29.83 in1010.2 mb 0.00 in0.0 mm 0.00 in0.0 mm 0.00 in0.0 mm
09:20 AM 56.1°F13.4°C 42.8°F6.0°C 61% 8.1 mph ENE13.0 kmh ENE 10.0 mph16.1 kmh 29.83 in1010.2 mb 0.00 in0.0 mm 0.00 in0.0 mm 0.00 in0.0 mm
09:30 AM 56.3°F13.5°C 43.4°F6.3°C 62% 8.1 mph ENE13.0 kmh ENE 10.0 mph16.1 kmh 29.83 in1010.2 mb 0.00 in0.0 mm 0.00 in0.0 mm 0.00 in0.0 mm
09:40 AM 56.3°F13.5°C 43.0°F6.1°C 61% 8.1 mph ENE13.0 kmh ENE 10.0 mph16.1 kmh 29.83 in1010.2 mb 0.00 in0.0 mm 0.00 in0.0 mm 0.00 in0.0 mm
09:50 AM 56.7°F13.7°C 43.4°F6.3°C 61% 14.2 mph NW22.9 kmh NW 17.5 mph28.2 kmh 29.83 in1010.2 mb 0.00 in0.0 mm 0.00 in0.0 mm 0.00 in0.0 mm
10:00 AM 57.2°F14.0°C 43.4°F6.3°C 60% 14.2 mph NW22.9 kmh NW 17.5 mph28.2 kmh 29.83 in1010.2 mb 0.00 in0.0 mm 0.00 in0.0 mm 0.00 in0.0 mm
10:10 AM 57.2°F14.0°C 43.4°F6.3°C 60% 10.8 mph WNW17.4 kmh WNW 17.5 mph28.2 kmh 29.80 in1009.1 mb 0.00 in0.0 mm 0.00 in0.0 mm 0.00 in0.0 mm
10:20 AM 57.4°F14.1°C 43.2°F6.2°C 59% 11.5 mph W18.5 kmh W 17.5 mph28.2 kmh 29.80 in1009.1 mb 0.00 in0.0 mm 0.00 in0.0 mm 0.00 in0.0 mm
10:30 AM 57.4°F14.1°C 43.2°F6.2°C 59% 12.3 mph WNW19.8 kmh WNW 17.5 mph28.2 kmh 29.83 in1010.2 mb 0.00 in0.0 mm 0.00 in0.0 mm 0.00 in0.0 mm
10:40 AM 57.0°F13.9°C 42.8°F6.0°C 59% 11.9 mph NW19.2 kmh NW 14.7 mph23.7 kmh 29.80 in1009.1 mb 0.00 in0.0 mm 0.00 in0.0 mm 0.00 in0.0 mm
10:50 AM 57.2°F14.0°C 43.4°F6.3°C 60% 13.0 mph NW20.9 kmh NW 21.1 mph34.0 kmh 29.80 in1009.1 mb 0.00 in0.0 mm 0.00 in0.0 mm 0.00 in0.0 mm
11:00 AM 57.4°F14.1°C 43.6°F6.4°C 60% 17.2 mph WNW27.7 kmh WNW 21.1 mph34.0 kmh 29.83 in1010.2 mb 0.00 in0.0 mm 0.00 in0.0 mm 0.00 in0.0 mm
11:10 AM 57.6°F14.2°C 43.3°F6.3°C 59% 12.1 mph NW19.5 kmh NW 21.1 mph34.0 kmh 29.80 in1009.1 mb 0.00 in0.0 mm 0.00 in0.0 mm 0.00 in0.0 mm
11:20 AM 57.9°F14.4°C 44.1°F6.7°C 60% 12.2 mph NW19.6 kmh NW 15.0 mph24.1 kmh 29.80 in1009.1 mb 0.00 in0.0 mm 0.00 in0.0 mm 0.00 in0.0 mm
11:30 AM 58.1°F14.5°C 43.8°F6.6°C 59% 12.2 mph NW19.6 kmh NW 15.0 mph24.1 kmh 29.80 in1009.1 mb 0.00 in0.0 mm 0.00 in0.0 mm 0.00 in0.0 mm
11:40 AM 58.1°F14.5°C 43.8°F6.6°C 59% 7.9 mph NW12.7 kmh NW 9.7 mph15.6 kmh 29.83 in1010.2 mb 0.00 in0.0 mm 0.00 in0.0 mm 0.00 in0.0 mm
11:50 AM 58.3°F14.6°C 44.0°F6.7°C 59% 13.0 mph W20.9 kmh W 20.4 mph32.8 kmh 29.83 in1010.2 mb 0.00 in0.0 mm 0.00 in0.0 mm 0.00 in0.0 mm
12:00 PM 58.1°F14.5°C 43.4°F6.3°C 58% 16.6 mph W26.7 kmh W 20.4 mph32.8 kmh 29.83 in1010.2 mb 0.00 in0.0 mm 0.00 in0.0 mm 0.00 in0.0 mm
12:10 PM 58.3°F14.6°C 43.1°F6.2°C 57% 16.6 mph W26.7 kmh W 20.4 mph32.8 kmh 29.86 in1011.2 mb 0.00 in0.0 mm 0.00 in0.0 mm 0.00 in0.0 mm
12:20 PM 58.5°F14.7°C 43.7°F6.5°C 58% 10.0 mph W16.1 kmh W 13.6 mph21.9 kmh 29.86 in1011.2 mb 0.00 in0.0 mm 0.00 in0.0 mm 0.00 in0.0 mm
12:30 PM 58.3°F14.6°C 42.6°F5.9°C 56% 11.1 mph W17.9 kmh W 13.6 mph21.9 kmh 29.83 in1010.2 mb 0.00 in0.0 mm 0.00 in0.0 mm 0.00 in0.0 mm
12:40 PM 58.5°F14.7°C 43.3°F6.3°C 57% 14.8 mph W23.8 kmh W 18.3 mph29.5 kmh 29.83 in1010.2 mb 0.00 in0.0 mm 0.00 in0.0 mm 0.00 in0.0 mm
12:50 PM 58.8°F14.9°C 43.6°F6.4°C 57% 9.7 mph W15.6 kmh W 18.3 mph29.5 kmh 29.83 in1010.2 mb 0.00 in0.0 mm 0.00 in0.0 mm 0.00 in0.0 mm
01:00 PM 58.5°F14.7°C 42.3°F5.7°C 55% 7.6 mph W12.2 kmh W 9.3 mph15.0 kmh 29.86 in1011.2 mb 0.00 in0.0 mm 0.00 in0.0 mm 0.00 in0.0 mm
01:10 PM 58.5°F14.7°C 43.3°F6.3°C 57% 11.3 mph NW18.2 kmh NW 17.2 mph27.7 kmh 29.83 in1010.2 mb 0.00 in0.0 mm 0.00 in0.0 mm 0.00 in0.0 mm
01:20 PM 58.8°F14.9°C 43.1°F6.2°C 56% 8.3 mph W13.4 kmh W 17.5 mph28.2 kmh 29.83 in1010.2 mb 0.00 in0.0 mm 0.00 in0.0 mm 0.00 in0.0 mm
01:30 PM 59.0°F15.0°C 42.8°F6.0°C 55% 12.2 mph W19.6 kmh W 31.5 mph50.7 kmh 29.86 in1011.2 mb 0.00 in0.0 mm 0.00 in0.0 mm 0.00 in0.0 mm
01:40 PM 59.2°F15.1°C 43.0°F6.1°C 55% 25.6 mph W41.2 kmh W 31.5 mph50.7 kmh 29.86 in1011.2 mb 0.00 in0.0 mm 0.00 in0.0 mm 0.00 in0.0 mm
01:50 PM 59.2°F15.1°C 43.0°F6.1°C 55% 14.9 mph W24.0 kmh W 31.5 mph50.7 kmh 29.86 in1011.2 mb 0.00 in0.0 mm 0.00 in0.0 mm 0.00 in0.0 mm
02:00 PM 58.6°F14.8°C 42.5°F5.8°C 55% 7.4 mph NW11.9 kmh NW 15.0 mph24.1 kmh 29.86 in1011.2 mb 0.00 in0.0 mm 0.00 in0.0 mm 0.00 in0.0 mm
02:10 PM 58.8°F14.9°C 42.7°F5.9°C 55% 5.2 mph W8.4 kmh W 6.4 mph10.3 kmh 29.86 in1011.2 mb 0.00 in0.0 mm 0.00 in0.0 mm 0.00 in0.0 mm
02:20 PM 58.6°F14.8°C 42.0°F5.6°C 54% 13.8 mph W22.2 kmh W 22.2 mph35.7 kmh 29.86 in1011.2 mb 0.00 in0.0 mm 0.00 in0.0 mm 0.00 in0.0 mm
02:30 PM 59.0°F15.0°C 42.8°F6.0°C 55% 18.0 mph W29.0 kmh W 22.2 mph35.7 kmh 29.86 in1011.2 mb 0.00 in0.0 mm 0.00 in0.0 mm 0.00 in0.0 mm
02:40 PM 59.4°F15.2°C 43.2°F6.2°C 55% 9.9 mph W15.9 kmh W 12.2 mph19.6 kmh 29.86 in1011.2 mb 0.00 in0.0 mm 0.00 in0.0 mm 0.00 in0.0 mm
02:50 PM 58.8°F14.9°C 42.7°F5.9°C 55% 9.9 mph W15.9 kmh W 12.2 mph19.6 kmh 29.86 in1011.2 mb 0.00 in0.0 mm 0.00 in0.0 mm 0.00 in0.0 mm
03:00 PM 57.7°F14.3°C 41.2°F5.1°C 54% 9.9 mph W15.9 kmh W 12.2 mph19.6 kmh 29.86 in1011.2 mb 0.00 in0.0 mm 0.00 in0.0 mm 0.00 in0.0 mm
03:10 PM 57.6°F14.2°C 41.0°F5.0°C 54% 9.9 mph W15.9 kmh W 12.2 mph19.6 kmh 29.89 in1012.2 mb 0.00 in0.0 mm 0.00 in0.0 mm 0.00 in0.0 mm
03:20 PM 56.7°F13.7°C 40.2°F4.6°C 54% 9.9 mph W15.9 kmh W 12.2 mph19.6 kmh 29.89 in1012.2 mb 0.00 in0.0 mm 0.00 in0.0 mm 0.00 in0.0 mm
03:30 PM 56.1°F13.4°C 39.7°F4.3°C 54% 9.9 mph W15.9 kmh W 12.2 mph19.6 kmh 29.89 in1012.2 mb 0.00 in0.0 mm 0.00 in0.0 mm 0.00 in0.0 mm
03:40 PM 55.9°F13.3°C 39.5°F4.2°C 54% 9.9 mph W15.9 kmh W 12.2 mph19.6 kmh 29.89 in1012.2 mb 0.00 in0.0 mm 0.00 in0.0 mm 0.00 in0.0 mm
03:50 PM 55.9°F13.3°C 39.5°F4.2°C 54% 9.9 mph W15.9 kmh W 12.2 mph19.6 kmh 29.89 in1012.2 mb 0.00 in0.0 mm 0.00 in0.0 mm 0.00 in0.0 mm
04:00 PM 56.1°F13.4°C 39.7°F4.3°C 54% 9.9 mph W15.9 kmh W 12.2 mph19.6 kmh 29.86 in1011.2 mb 0.00 in0.0 mm 0.00 in0.0 mm 0.00 in0.0 mm
04:10 PM 56.1°F13.4°C 40.2°F4.6°C 55% 9.9 mph W15.9 kmh W 12.2 mph19.6 kmh 29.86 in1011.2 mb 0.00 in0.0 mm 0.00 in0.0 mm 0.00 in0.0 mm
04:20 PM 56.7°F13.7°C 40.7°F4.8°C 55% 9.9 mph W15.9 kmh W 12.2 mph19.6 kmh 29.86 in1011.2 mb 0.00 in0.0 mm 0.00 in0.0 mm 0.00 in0.0 mm
04:30 PM 56.5°F13.6°C 40.5°F4.7°C 55% 9.9 mph W15.9 kmh W 12.2 mph19.6 kmh 29.86 in1011.2 mb 0.00 in0.0 mm 0.00 in0.0 mm 0.00 in0.0 mm
04:40 PM 56.5°F13.6°C 41.0°F5.0°C 56% 9.9 mph W15.9 kmh W 12.2 mph19.6 kmh 29.89 in1012.2 mb 0.00 in0.0 mm 0.00 in0.0 mm 0.00 in0.0 mm
04:50 PM 56.3°F13.5°C 40.3°F4.6°C 55% 9.9 mph W15.9 kmh W 12.2 mph19.6 kmh 29.89 in1012.2 mb 0.00 in0.0 mm 0.00 in0.0 mm 0.00 in0.0 mm
05:00 PM 55.9°F13.3°C 40.0°F4.4°C 55% 9.9 mph W15.9 kmh W 12.2 mph19.6 kmh 29.86 in1011.2 mb 0.00 in0.0 mm 0.00 in0.0 mm 0.00 in0.0 mm
05:10 PM 55.9°F13.3°C 40.5°F4.7°C 56% 9.9 mph W15.9 kmh W 12.2 mph19.6 kmh 29.86 in1011.2 mb 0.00 in0.0 mm 0.00 in0.0 mm 0.00 in0.0 mm
05:20 PM 55.6°F13.1°C 40.1°F4.5°C 56% 9.9 mph W15.9 kmh W 12.2 mph19.6 kmh 29.86 in1011.2 mb 0.00 in0.0 mm 0.00 in0.0 mm 0.00 in0.0 mm
05:30 PM 55.4°F13.0°C 40.4°F4.7°C 57% 9.9 mph W15.9 kmh W 12.2 mph19.6 kmh 29.86 in1011.2 mb 0.00 in0.0 mm 0.00 in0.0 mm 0.00 in0.0 mm
05:40 PM 55.2°F12.9°C 40.7°F4.8°C 58% 9.9 mph W15.9 kmh W 12.2 mph19.6 kmh 29.86 in1011.2 mb 0.00 in0.0 mm 0.00 in0.0 mm 0.00 in0.0 mm
05:50 PM 55.2°F12.9°C 40.7°F4.8°C 58% 9.9 mph W15.9 kmh W 12.2 mph19.6 kmh 29.86 in1011.2 mb 0.00 in0.0 mm 0.00 in0.0 mm 0.00 in0.0 mm
06:00 PM 55.0°F12.8°C 41.0°F5.0°C 59% 9.9 mph W15.9 kmh W 12.2 mph19.6 kmh 29.86 in1011.2 mb 0.00 in0.0 mm 0.00 in0.0 mm 0.00 in0.0 mm
06:10 PM 54.9°F12.7°C 41.2°F5.1°C 60% 9.9 mph W15.9 kmh W 12.2 mph19.6 kmh 29.86 in1011.2 mb 0.00 in0.0 mm 0.00 in0.0 mm 0.00 in0.0 mm
06:20 PM 54.7°F12.6°C 41.1°F5.1°C 60% 9.9 mph W15.9 kmh W 12.2 mph19.6 kmh 29.86 in1011.2 mb 0.00 in0.0 mm 0.00 in0.0 mm 0.00 in0.0 mm
06:30 PM 54.7°F12.6°C 41.1°F5.1°C 60% 9.9 mph W15.9 kmh W 12.2 mph19.6 kmh 29.86 in1011.2 mb 0.00 in0.0 mm 0.00 in0.0 mm 0.00 in0.0 mm
06:40 PM 54.5°F12.5°C 41.3°F5.2°C 61% 9.9 mph W15.9 kmh W 12.2 mph19.6 kmh 29.86 in1011.2 mb 0.00 in0.0 mm 0.00 in0.0 mm 0.00 in0.0 mm
06:50 PM 54.5°F12.5°C 41.7°F5.4°C 62% 9.9 mph W15.9 kmh W 12.2 mph19.6 kmh 29.86 in1011.2 mb 0.00 in0.0 mm 0.00 in0.0 mm 0.00 in0.0 mm
07:00 PM 54.5°F12.5°C 41.7°F5.4°C 62% 9.9 mph W15.9 kmh W 12.2 mph19.6 kmh 29.86 in1011.2 mb 0.00 in0.0 mm 0.00 in0.0 mm 0.00 in0.0 mm
07:10 PM 54.3°F12.4°C 42.0°F5.6°C 63% 9.9 mph W15.9 kmh W 12.2 mph19.6 kmh 29.83 in1010.2 mb 0.00 in0.0 mm 0.00 in0.0 mm 0.00 in0.0 mm
07:20 PM 54.3°F12.4°C 42.0°F5.6°C 63% 7.3 mph N11.7 kmh N 8.9 mph14.3 kmh 29.83 in1010.2 mb 0.00 in0.0 mm 0.00 in0.0 mm 0.00 in0.0 mm
07:30 PM 54.1°F12.3°C 41.8°F5.4°C 63% 7.3 mph N11.7 kmh N 8.9 mph14.3 kmh 29.83 in1010.2 mb 0.00 in0.0 mm 0.00 in0.0 mm 0.00 in0.0 mm
07:40 PM 54.1°F12.3°C 41.4°F5.2°C 62% 7.3 mph N11.7 kmh N 8.9 mph14.3 kmh 29.86 in1011.2 mb 0.00 in0.0 mm 0.00 in0.0 mm 0.00 in0.0 mm
07:50 PM 54.0°F12.2°C 41.6°F5.3°C 63% 7.3 mph N11.7 kmh N 8.9 mph14.3 kmh 29.86 in1011.2 mb 0.00 in0.0 mm 0.00 in0.0 mm 0.00 in0.0 mm
08:00 PM 54.0°F12.2°C 41.6°F5.3°C 63% 7.3 mph N11.7 kmh N 8.9 mph14.3 kmh 29.83 in1010.2 mb 0.00 in0.0 mm 0.00 in0.0 mm 0.00 in0.0 mm
08:10 PM 54.1°F12.3°C 42.6°F5.9°C 65% 7.3 mph N11.7 kmh N 8.9 mph14.3 kmh 29.83 in1010.2 mb 0.00 in0.0 mm 0.00 in0.0 mm 0.00 in0.0 mm
08:20 PM 54.1°F12.3°C 42.6°F5.9°C 65% 7.3 mph N11.7 kmh N 8.9 mph14.3 kmh 29.83 in1010.2 mb 0.00 in0.0 mm 0.00 in0.0 mm 0.00 in0.0 mm
08:30 PM 54.0°F12.2°C 42.9°F6.1°C 66% 7.3 mph N11.7 kmh N 8.9 mph14.3 kmh 29.83 in1010.2 mb 0.00 in0.0 mm 0.00 in0.0 mm 0.00 in0.0 mm
08:40 PM 54.1°F12.3°C 43.0°F6.1°C 66% 7.3 mph N11.7 kmh N 8.9 mph14.3 kmh 29.80 in1009.1 mb 0.00 in0.0 mm 0.00 in0.0 mm 0.00 in0.0 mm
08:50 PM 54.0°F12.2°C 43.2°F6.2°C 67% 7.3 mph N11.7 kmh N 8.9 mph14.3 kmh 29.80 in1009.1 mb 0.00 in0.0 mm 0.00 in0.0 mm 0.00 in0.0 mm
09:00 PM 54.0°F12.2°C 43.6°F6.4°C 68% 7.3 mph N11.7 kmh N 8.9 mph14.3 kmh 29.80 in1009.1 mb 0.00 in0.0 mm 0.00 in0.0 mm 0.00 in0.0 mm
09:10 PM 54.0°F12.2°C 43.6°F6.4°C 68% 7.3 mph N11.7 kmh N 8.9 mph14.3 kmh 29.83 in1010.2 mb 0.00 in0.0 mm 0.00 in0.0 mm 0.00 in0.0 mm
09:20 PM 53.8°F12.1°C 43.5°F6.4°C 68% 7.3 mph N11.7 kmh N 8.9 mph14.3 kmh 29.83 in1010.2 mb 0.00 in0.0 mm 0.00 in0.0 mm 0.00 in0.0 mm
09:30 PM 54.0°F12.2°C 43.6°F6.4°C 68% 3.8 mph W6.1 kmh W 4.7 mph7.6 kmh 29.83 in1010.2 mb 0.00 in0.0 mm 0.00 in0.0 mm 0.00 in0.0 mm
09:40 PM 54.1°F12.3°C 43.8°F6.6°C 68% 3.8 mph W6.1 kmh W 4.7 mph7.6 kmh 29.83 in1010.2 mb 0.00 in0.0 mm 0.00 in0.0 mm 0.00 in0.0 mm
09:50 PM 54.1°F12.3°C 43.8°F6.6°C 68% 3.8 mph W6.1 kmh W 4.7 mph7.6 kmh 29.83 in1010.2 mb 0.00 in0.0 mm 0.00 in0.0 mm 0.00 in0.0 mm
10:00 PM 54.1°F12.3°C 43.8°F6.6°C 68% 9.0 mph SSW14.5 kmh SSW 12.2 mph19.6 kmh 29.83 in1010.2 mb 0.00 in0.0 mm 0.00 in0.0 mm 0.00 in0.0 mm
10:10 PM 54.1°F12.3°C 44.2°F6.8°C 69% 9.9 mph S15.9 kmh S 12.2 mph19.6 kmh 29.83 in1010.2 mb 0.00 in0.0 mm 0.00 in0.0 mm 0.00 in0.0 mm
10:20 PM 54.1°F12.3°C 44.6°F7.0°C 70% 9.9 mph S15.9 kmh S 12.2 mph19.6 kmh 29.83 in1010.2 mb 0.00 in0.0 mm 0.00 in0.0 mm 0.00 in0.0 mm
10:30 PM 54.1°F12.3°C 44.2°F6.8°C 69% 9.9 mph S15.9 kmh S 12.2 mph19.6 kmh 29.83 in1010.2 mb 0.00 in0.0 mm 0.00 in0.0 mm 0.00 in0.0 mm
10:40 PM 54.1°F12.3°C 44.6°F7.0°C 70% 9.9 mph S15.9 kmh S 12.2 mph19.6 kmh 29.80 in1009.1 mb 0.00 in0.0 mm 0.00 in0.0 mm 0.00 in0.0 mm
10:50 PM 53.4°F11.9°C 44.6°F7.0°C 72% 9.9 mph S15.9 kmh S 12.2 mph19.6 kmh 29.80 in1009.1 mb 0.00 in0.0 mm 0.00 in0.0 mm 0.00 in0.0 mm
11:00 PM 53.1°F11.7°C 45.0°F7.2°C 74% 9.9 mph S15.9 kmh S 12.2 mph19.6 kmh 29.80 in1009.1 mb 0.00 in0.0 mm 0.00 in0.0 mm 0.00 in0.0 mm
11:10 PM 53.1°F11.7°C 45.3°F7.4°C 75% 9.9 mph S15.9 kmh S 12.2 mph19.6 kmh 29.80 in1009.1 mb 0.00 in0.0 mm 0.00 in0.0 mm 0.00 in0.0 mm
11:20 PM 52.9°F11.6°C 45.5°F7.5°C 76% 9.9 mph S15.9 kmh S 12.2 mph19.6 kmh 29.80 in1009.1 mb 0.00 in0.0 mm 0.00 in0.0 mm 0.00 in0.0 mm
11:30 PM 52.7°F11.5°C 46.0°F7.8°C 78% 11.3 mph NW18.2 kmh NW 14.0 mph22.5 kmh 29.80 in1009.1 mb 0.00 in0.0 mm 0.00 in0.0 mm 0.00 in0.0 mm
11:40 PM 52.7°F11.5°C 46.4°F8.0°C 79% 11.3 mph NW18.2 kmh NW 14.0 mph22.5 kmh 29.77 in1008.1 mb 0.00 in0.0 mm 0.00 in0.0 mm 0.00 in0.0 mm
11:50 PM 52.9°F11.6°C 46.5°F8.1°C 79% 11.3 mph NW18.2 kmh NW 14.0 mph22.5 kmh 29.77 in1008.1 mb 0.00 in0.0 mm 0.00 in0.0 mm 0.00 in0.0 mm